Time;durP1;ratioP1;P1;durP2;ratioP2;P2;SDS_P1;SDS_P2;PMS_P1;PMS_P2;Temp;Humidity;BMP_temperature;BMP_pressure;BME280_temperature;BME280_humidity;BME280_pressure;Samples;Min_cycle;Max_cycle;Signal;HPM_P1;HPM_P2
2022/06/04 00:00:37;;;;;;;6.28;4.35;;;11.30;88.80;;;;;;5086419;28;20367;-77
2022/06/04 00:03:03;;;;;;;6.78;4.22;;;11.30;88.70;;;;;;5089303;28;20046;-77
2022/06/04 00:05:33;;;;;;;8.23;4.43;;;11.30;88.90;;;;;;5088987;28;20123;-77
2022/06/04 00:08:00;;;;;;;7.95;4.95;;;11.20;88.90;;;;;;5096675;28;20046;-77
2022/06/04 00:15:59;;;;;;;6.40;4.63;;;11.00;89.30;;;;;;5086768;28;20038;-77
2022/06/04 00:18:25;;;;;;;8.75;5.03;;;11.00;90.10;;;;;;5090817;28;20028;-77
2022/06/04 00:20:52;;;;;;;8.25;4.93;;;11.00;90.20;;;;;;5078683;28;20047;-77
2022/06/04 00:23:18;;;;;;;9.05;5.55;;;11.00;90.50;;;;;;5081399;28;20044;-77
2022/06/04 00:25:49;;;;;;;6.93;4.97;;;10.90;90.40;;;;;;5089533;28;20032;-77
2022/06/04 00:28:16;;;;;;;6.28;4.15;;;10.80;90.40;;;;;;5091091;28;20036;-77
2022/06/04 00:30:42;;;;;;;9.35;5.63;;;10.80;90.50;;;;;;5087456;28;20097;-77
2022/06/04 00:33:07;;;;;;;7.82;5.10;;;10.80;90.70;;;;;;5093056;28;20429;-77
2022/06/04 00:35:34;;;;;;;7.25;4.95;;;10.70;90.90;;;;;;5090791;28;20047;-77
2022/06/04 00:38:00;;;;;;;7.70;4.93;;;10.70;91.20;;;;;;5076076;28;20024;-77
2022/06/04 00:40:39;;;;;;;9.57;5.13;;;10.70;91.40;;;;;;5090242;28;20036;-77
2022/06/04 00:43:05;;;;;;;8.30;5.13;;;10.60;91.30;;;;;;5096582;28;20031;-77
2022/06/04 00:45:36;;;;;;;9.85;4.55;;;10.60;91.30;;;;;;5086803;28;20031;-77
2022/06/04 00:48:07;;;;;;;7.45;4.88;;;10.50;91.20;;;;;;5089177;28;20039;-77
2022/06/04 00:50:38;;;;;;;9.90;5.13;;;10.60;91.40;;;;;;5091800;28;20035;-77
2022/06/04 00:53:07;;;;;;;6.95;5.20;;;10.50;91.60;;;;;;5095955;28;20043;-77
2022/06/04 00:55:57;;;;;;;9.38;5.68;;;10.50;91.50;;;;;;5083921;28;20070;-77
2022/06/04 00:58:38;;;;;;;7.45;4.80;;;10.40;91.30;;;;;;5086180;28;20032;-77
2022/06/04 01:01:17;;;;;;;7.30;5.13;;;10.40;91.50;;;;;;5089376;28;20111;-77
2022/06/04 01:03:58;;;;;;;7.28;4.88;;;10.40;91.30;;;;;;5086907;28;20028;-77
2022/06/04 01:06:27;;;;;;;;;;;10.30;91.60;;;;;;5092281;28;20028;-77
2022/06/04 01:09:09;;;;;;;9.23;4.90;;;10.30;91.70;;;;;;5092104;28;20366;-77
2022/06/04 01:12:10;;;;;;;8.80;5.50;;;10.30;91.90;;;;;;5094363;28;20140;-77
2022/06/04 01:15:12;;;;;;;7.83;5.67;;;10.20;91.90;;;;;;5085380;28;20028;-77
2022/06/04 01:18:05;;;;;;;9.75;5.32;;;10.20;92.20;;;;;;5096487;28;20032;-77
2022/06/04 01:20:48;;;;;;;7.65;5.30;;;10.10;92.00;;;;;;5084911;28;20085;-77
2022/06/04 01:23:49;;;;;;;7.57;5.22;;;10.10;92.10;;;;;;5079977;28;20050;-77
2022/06/04 01:26:48;;;;;;;8.18;5.20;;;10.10;91.90;;;;;;5089490;28;20031;-77
2022/06/04 01:29:22;;;;;;;7.07;5.28;;;10.00;92.20;;;;;;5070693;28;20033;-76
2022/06/04 01:31:56;;;;;;;7.60;5.03;;;10.10;92.50;;;;;;5096935;28;20440;-77
2022/06/04 01:34:31;;;;;;;9.57;5.93;;;10.00;92.50;;;;;;5087576;28;20047;-77
2022/06/04 01:37:03;;;;;;;9.32;5.72;;;10.00;92.50;;;;;;5090594;28;20031;-77
2022/06/04 01:41:03;;;;;;;8.32;5.57;;;10.00;92.50;;;;;;5087405;28;20414;-77
2022/06/04 01:42:23;;;;;;;10.20;5.70;;;10.00;92.70;;;;;;5090848;28;20044;-77
2022/06/04 01:44:51;;;;;;;8.98;6.45;;;10.00;92.70;;;;;;5095471;28;20039;-77
2022/06/04 01:47:19;;;;;;;16.38;7.05;;;10.00;93.00;;;;;;5100093;28;20395;-77
2022/06/04 01:49:54;;;;;;;10.55;6.65;;;9.90;93.00;;;;;;5094986;28;20049;-77
2022/06/04 01:52:26;;;;;;;10.60;6.05;;;9.90;92.90;;;;;;5097421;28;20162;-77
2022/06/04 01:55:06;;;;;;;11.65;5.78;;;9.90;93.10;;;;;;5079178;28;20052;-77
2022/06/04 01:57:46;;;;;;;14.32;6.10;;;9.80;92.90;;;;;;5071203;28;20024;-77
2022/06/04 02:00:15;;;;;;;9.75;6.25;;;9.80;92.80;;;;;;5073194;28;20063;-77
2022/06/04 02:02:50;;;;;;;9.82;6.60;;;9.70;93.00;;;;;;5059295;28;20439;-77
2022/06/04 02:05:24;;;;;;;11.43;6.57;;;9.70;92.90;;;;;;5070871;28;20056;-77
2022/06/04 02:07:53;;;;;;;9.05;6.18;;;9.70;93.10;;;;;;5047411;28;20371;-77
2022/06/04 02:10:27;;;;;;;10.52;6.47;;;9.60;93.00;;;;;;5172975;22;20019;-87
2022/06/04 02:12:58;;;;;;;10.75;6.70;;;9.60;93.20;;;;;;5089393;28;20031;-87
2022/06/04 02:15:34;;;;;;;10.13;6.70;;;9.60;93.20;;;;;;5087171;28;20646;-88
2022/06/04 02:18:02;;;;;;;8.60;6.20;;;9.50;93.20;;;;;;5094472;28;20495;-88
2022/06/04 02:20:27;;;;;;;14.50;6.28;;;9.50;93.10;;;;;;5091594;28;20474;-87
2022/06/04 02:22:54;;;;;;;11.38;6.85;;;9.50;93.30;;;;;;5091891;28;20031;-87
2022/06/04 02:25:21;;;;;;;11.15;7.30;;;9.40;93.30;;;;;;5091419;28;20032;-87
2022/06/04 02:27:49;;;;;;;9.23;6.85;;;9.40;93.50;;;;;;5094409;28;20429;-87
2022/06/04 02:30:17;;;;;;;13.15;6.95;;;9.40;93.50;;;;;;5087190;27;20060;-87
2022/06/04 02:33:18;;;;;;;10.07;7.00;;;9.30;93.50;;;;;;5094835;28;20494;-87
2022/06/04 02:35:55;;;;;;;9.70;7.13;;;9.30;93.60;;;;;;5108094;27;20042;-87
2022/06/04 02:38:27;;;;;;;11.65;7.32;;;9.30;93.80;;;;;;5110856;28;20031;-87
2022/06/04 02:41:08;;;;;;;12.18;7.30;;;9.30;93.90;;;;;;5101247;28;20124;-87
2022/06/04 02:43:45;;;;;;;12.85;8.13;;;9.30;94.00;;;;;;5086331;27;20387;-88
2022/06/04 02:46:40;;;;;;;10.18;7.28;;;9.30;94.10;;;;;;5090577;28;20027;-87
2022/06/04 02:49:14;;;;;;;13.40;8.18;;;9.30;94.10;;;;;;5092537;27;20020;-87
2022/06/04 02:51:50;;;;;;;14.07;8.52;;;9.20;94.10;;;;;;5083704;28;20032;-87
2022/06/04 02:54:30;;;;;;;13.05;8.18;;;9.30;94.20;;;;;;5086690;28;20031;-87
2022/06/04 02:56:57;;;;;;;15.88;8.93;;;9.30;94.30;;;;;;5108570;28;20032;-87
2022/06/04 02:59:25;;;;;;;10.90;8.13;;;9.30;94.40;;;;;;5105089;27;20036;-87
2022/06/04 03:01:53;;;;;;;11.48;8.25;;;9.20;94.30;;;;;;5096316;28;20031;-88
2022/06/04 03:04:19;;;;;;;12.57;8.88;;;9.20;94.30;;;;;;5091439;28;20509;-87
2022/06/04 03:06:45;;;;;;;14.70;8.32;;;9.20;94.30;;;;;;5095938;28;20140;-87
2022/06/04 03:09:15;;;;;;;14.85;8.90;;;9.20;94.20;;;;;;5089843;27;20023;-87
2022/06/04 03:11:46;;;;;;;12.65;8.73;;;9.10;94.30;;;;;;5107041;28;20493;-87
2022/06/04 03:14:13;;;;;;;15.75;8.93;;;9.10;94.20;;;;;;5091645;28;20020;-87
2022/06/04 03:16:42;;;;;;;14.75;8.73;;;9.10;94.30;;;;;;5089697;27;20019;-87
2022/06/04 03:19:09;;;;;;;17.65;9.60;;;9.10;94.40;;;;;;5083272;28;20085;-87
2022/06/04 03:21:36;;;;;;;16.17;9.00;;;9.20;94.50;;;;;;5092006;28;20036;-87
2022/06/04 03:24:03;;;;;;;14.70;9.13;;;9.10;94.50;;;;;;5089674;28;20023;-87
2022/06/04 03:26:29;;;;;;;16.20;9.20;;;9.10;94.40;;;;;;5087999;28;20057;-87
2022/06/04 03:28:54;;;;;;;16.00;9.30;;;9.10;94.50;;;;;;5103917;27;20027;-87
2022/06/04 03:31:20;;;;;;;17.23;9.25;;;9.10;94.40;;;;;;5092754;28;20065;-87
2022/06/04 03:33:45;;;;;;;20.75;9.75;;;9.10;94.40;;;;;;5091276;28;20034;-87
2022/06/04 03:36:12;;;;;;;14.45;9.18;;;9.20;94.50;;;;;;5085746;28;20371;-87
2022/06/04 03:38:37;;;;;;;14.25;9.63;;;9.20;94.50;;;;;;5090054;28;20020;-87
2022/06/04 03:41:03;;;;;;;15.00;9.45;;;9.20;94.60;;;;;;5084539;28;20073;-87
2022/06/04 03:43:28;;;;;;;13.73;9.00;;;9.30;94.70;;;;;;5097899;28;20048;-87
2022/06/04 03:45:54;;;;;;;15.02;9.25;;;9.20;94.60;;;;;;5090239;28;20114;-87
2022/06/04 03:48:20;;;;;;;14.50;9.63;;;9.30;94.70;;;;;;5079628;28;20110;-87
2022/06/04 03:50:45;;;;;;;15.45;10.55;;;9.30;94.50;;;;;;5104809;28;20036;-87
2022/06/04 03:53:11;;;;;;;15.98;9.60;;;9.30;94.70;;;;;;5101108;28;20477;-87
2022/06/04 03:55:36;;;;;;;18.60;10.02;;;9.30;94.80;;;;;;5087167;28;20019;-87
2022/06/04 03:58:02;;;;;;;18.98;9.57;;;9.40;94.90;;;;;;5091257;28;20016;-87
2022/06/04 04:00:31;;;;;;;15.45;9.07;;;9.40;94.70;;;;;;5077750;27;20459;-87
2022/06/04 04:03:00;;;;;;;13.40;8.95;;;9.30;94.60;;;;;;5090503;28;20054;-87
2022/06/04 04:05:31;;;;;;;17.10;9.27;;;9.40;94.80;;;;;;5108033;28;20027;-87
2022/06/04 04:07:58;;;;;;;20.63;10.13;;;9.50;94.90;;;;;;5110857;27;20027;-87
2022/06/04 04:10:26;;;;;;;18.10;10.45;;;9.50;94.70;;;;;;5098719;28;20034;-87
2022/06/04 04:12:52;;;;;;;15.85;9.20;;;9.50;94.80;;;;;;5074267;28;20067;-87
2022/06/04 04:15:18;;;;;;;15.63;10.70;;;9.60;94.70;;;;;;5069659;28;20513;-87
2022/06/04 04:17:44;;;;;;;15.00;10.40;;;9.60;94.70;;;;;;5082182;28;20413;-87
2022/06/04 04:20:19;;;;;;;15.23;9.60;;;9.60;94.80;;;;;;5071078;28;20114;-87
2022/06/04 04:22:44;;;;;;;18.40;10.07;;;9.70;94.70;;;;;;5073789;28;20028;-87
2022/06/04 04:25:12;;;;;;;17.52;10.25;;;9.70;94.70;;;;;;5063175;28;20439;-88
2022/06/04 04:27:38;;;;;;;18.42;10.18;;;9.80;94.80;;;;;;5082982;28;20035;-88
2022/06/04 04:30:06;;;;;;;19.00;10.65;;;9.80;94.80;;;;;;5070599;28;20028;-87
2022/06/04 04:32:32;;;;;;;14.95;10.35;;;9.90;94.70;;;;;;5068451;28;20059;-87
2022/06/04 04:34:59;;;;;;;16.70;10.43;;;10.00;94.80;;;;;;5091796;28;20024;-87
2022/06/04 04:37:24;;;;;;;17.63;10.43;;;10.10;94.70;;;;;;5079486;28;20491;-87
2022/06/04 04:39:50;;;;;;;16.63;10.70;;;10.10;94.50;;;;;;5068803;28;20024;-87
2022/06/04 04:42:19;;;;;;;15.55;9.95;;;10.10;94.30;;;;;;5069454;28;20043;-85
2022/06/04 04:44:44;;;;;;;16.58;10.27;;;10.20;94.30;;;;;;5061544;28;20027;-85
2022/06/04 04:47:10;;;;;;;19.38;9.95;;;10.30;94.20;;;;;;5088009;28;20036;-85
2022/06/04 04:49:35;;;;;;;17.42;10.50;;;10.30;94.30;;;;;;5071717;28;20499;-85
2022/06/04 04:52:02;;;;;;;17.20;10.27;;;10.40;94.20;;;;;;5070981;28;20110;-85
2022/06/04 04:54:28;;;;;;;18.70;10.60;;;10.40;94.00;;;;;;5068825;28;20055;-85
2022/06/04 04:56:54;;;;;;;18.67;10.90;;;10.40;93.90;;;;;;5082442;28;20051;-85
2022/06/04 04:59:19;;;;;;;16.25;10.35;;;10.50;94.10;;;;;;5069970;28;20032;-85
2022/06/04 05:01:45;;;;;;;17.40;10.40;;;10.50;94.00;;;;;;5072643;28;20382;-85
2022/06/04 05:04:11;;;;;;;15.60;9.77;;;10.60;94.00;;;;;;5071011;28;20056;-85
2022/06/04 05:06:37;;;;;;;16.08;9.88;;;10.60;93.90;;;;;;5069600;28;20054;-85
2022/06/04 05:09:02;;;;;;;14.65;10.30;;;10.70;93.90;;;;;;5070852;28;20487;-85
2022/06/04 05:11:32;;;;;;;17.50;10.02;;;10.80;93.90;;;;;;5077795;28;20036;-85
2022/06/04 05:13:59;;;;;;;15.20;10.32;;;10.90;93.90;;;;;;5081459;28;20035;-85
2022/06/04 05:16:27;;;;;;;18.67;9.93;;;11.00;93.80;;;;;;5091333;28;20032;-85
2022/06/04 05:18:52;;;;;;;13.50;10.02;;;11.10;93.70;;;;;;5087357;28;20017;-85
2022/06/04 05:21:18;;;;;;;19.40;10.70;;;11.20;93.70;;;;;;5081379;28;20043;-85
2022/06/04 05:23:43;;;;;;;16.70;11.30;;;11.40;93.40;;;;;;5081499;28;20067;-85
2022/06/04 05:26:09;;;;;;;17.98;10.63;;;11.40;93.30;;;;;;5082311;28;20035;-85
2022/06/04 05:28:34;;;;;;;19.10;10.68;;;11.60;93.20;;;;;;5085828;28;20358;-86
2022/06/04 05:31:00;;;;;;;15.63;10.57;;;11.80;92.90;;;;;;5092657;28;20081;-85
2022/06/04 05:33:28;;;;;;;18.88;11.07;;;12.00;92.80;;;;;;5092316;28;20055;-85
2022/06/04 05:35:54;;;;;;;22.67;10.77;;;12.10;92.20;;;;;;5090829;28;20507;-85
2022/06/04 05:38:20;;;;;;;16.08;9.95;;;12.30;91.90;;;;;;5089846;28;20055;-86
2022/06/04 05:40:45;;;;;;;19.15;10.38;;;12.50;91.20;;;;;;5088195;28;20024;-86
2022/06/04 05:43:11;;;;;;;14.05;9.50;;;12.60;90.70;;;;;;5091892;28;20036;-86
2022/06/04 05:45:36;;;;;;;13.50;8.95;;;12.70;90.30;;;;;;5089925;28;20028;-86
2022/06/04 05:48:02;;;;;;;15.32;9.23;;;12.70;89.80;;;;;;5090432;28;20479;-85
2022/06/04 05:50:27;;;;;;;21.88;10.40;;;12.70;89.50;;;;;;5089016;28;20055;-86
2022/06/04 05:52:53;;;;;;;21.80;11.18;;;12.80;89.20;;;;;;5092523;28;20016;-86
2022/06/04 05:55:18;;;;;;;18.60;10.90;;;12.80;89.40;;;;;;5077918;28;20033;-86
2022/06/04 05:57:46;;;;;;;18.83;11.27;;;12.80;89.50;;;;;;5092473;28;20024;-86
2022/06/04 06:00:12;;;;;;;20.30;11.52;;;12.80;89.60;;;;;;5094012;28;20473;-86
2022/06/04 06:02:38;;;;;;;20.52;12.30;;;12.80;89.40;;;;;;5091357;28;20470;-85
2022/06/04 06:05:04;;;;;;;22.27;12.18;;;12.70;89.40;;;;;;5083864;28;20077;-85
2022/06/04 06:07:30;;;;;;;24.83;13.80;;;12.70;89.50;;;;;;5092335;28;20624;-85
2022/06/04 06:09:56;;;;;;;20.63;12.20;;;12.80;89.60;;;;;;5089516;28;20024;-85
2022/06/04 06:12:21;;;;;;;21.85;12.25;;;12.90;89.30;;;;;;5086005;28;20059;-85
2022/06/04 06:14:47;;;;;;;17.83;12.25;;;12.90;88.90;;;;;;5089047;28;20040;-85
2022/06/04 06:17:13;;;;;;;19.10;12.07;;;12.90;89.10;;;;;;5092055;28;20395;-85
2022/06/04 06:19:38;;;;;;;20.40;12.88;;;13.00;88.90;;;;;;5086917;28;20032;-85
2022/06/04 06:22:04;;;;;;;18.10;12.40;;;13.10;88.90;;;;;;5090317;28;20085;-85
2022/06/04 06:24:29;;;;;;;18.65;12.88;;;13.20;89.00;;;;;;5087297;28;20031;-85
2022/06/04 06:26:58;;;;;;;18.17;11.75;;;13.30;88.60;;;;;;5073923;28;20139;-85
2022/06/04 06:29:26;;;;;;;20.95;13.20;;;13.50;88.20;;;;;;5088612;28;20446;-85
2022/06/04 06:31:53;;;;;;;18.02;12.18;;;13.60;88.10;;;;;;5080649;28;20490;-85
2022/06/04 06:34:20;;;;;;;20.58;12.55;;;13.90;87.70;;;;;;5085539;28;20020;-85
2022/06/04 06:36:46;;;;;;;22.42;13.45;;;14.10;87.30;;;;;;5084500;28;20032;-85
2022/06/04 06:39:11;;;;;;;19.80;12.30;;;14.20;86.70;;;;;;5086466;28;20403;-86
2022/06/04 06:41:37;;;;;;;18.65;11.30;;;14.40;85.90;;;;;;5088032;28;20035;-85
2022/06/04 06:44:03;;;;;;;17.05;11.15;;;14.60;85.30;;;;;;5090537;28;20114;-85
2022/06/04 06:46:32;;;;;;;19.85;11.40;;;14.50;84.70;;;;;;5087948;28;20398;-85
2022/06/04 06:49:03;;;;;;;17.05;11.50;;;14.60;85.10;;;;;;5083443;28;20119;-85
2022/06/04 06:51:35;;;;;;;17.20;11.02;;;14.60;84.40;;;;;;5086778;28;20078;-85
2022/06/04 06:54:01;;;;;;;17.75;10.32;;;14.60;84.60;;;;;;5086908;28;20080;-85
2022/06/04 06:56:34;;;;;;;18.13;10.15;;;14.70;84.80;;;;;;5085592;28;20409;-84
2022/06/04 06:59:00;;;;;;;15.95;10.77;;;14.90;84.60;;;;;;5087524;28;20024;-85
2022/06/04 07:01:27;;;;;;;18.15;9.95;;;15.00;83.50;;;;;;5085254;28;20047;-85
2022/06/04 07:03:55;;;;;;;16.10;10.40;;;15.30;82.50;;;;;;5081509;28;20034;-84
2022/06/04 07:06:50;;;;;;;17.20;10.40;;;15.10;82.70;;;;;;5082382;28;20467;-85
2022/06/04 07:09:18;;;;;;;16.27;10.52;;;15.50;81.80;;;;;;5083211;28;20028;-85
2022/06/04 07:11:44;;;;;;;19.25;9.77;;;15.60;82.00;;;;;;5095406;28;20089;-85
2022/06/04 07:14:12;;;;;;;18.10;10.65;;;15.60;81.40;;;;;;5110128;27;20084;-86
2022/06/04 07:16:39;;;;;;;15.57;10.60;;;15.50;81.20;;;;;;5093177;28;20442;-85
2022/06/04 07:19:05;;;;;;;16.95;10.45;;;15.80;82.00;;;;;;5090191;28;20028;-85
2022/06/04 07:21:31;;;;;;;14.45;9.32;;;16.00;80.50;;;;;;5081798;28;20036;-86
2022/06/04 07:23:57;;;;;;;17.05;9.38;;;16.30;79.10;;;;;;5086248;28;20154;-86
2022/06/04 07:26:25;;;;;;;12.63;8.95;;;16.50;77.20;;;;;;5088074;28;20020;-84
2022/06/04 07:28:50;;;;;;;15.32;9.35;;;16.80;78.60;;;;;;5092700;28;20127;-85
2022/06/04 07:31:16;;;;;;;16.13;9.80;;;17.00;77.60;;;;;;5091791;28;20106;-85
2022/06/04 07:33:43;;;;;;;16.42;8.45;;;16.90;77.00;;;;;;5089929;28;20072;-85
2022/06/04 07:36:17;;;;;;;13.32;8.38;;;17.10;77.30;;;;;;5110136;27;20497;-86
2022/06/04 07:38:43;;;;;;;13.23;7.85;;;16.90;75.70;;;;;;5096783;28;20047;-85
2022/06/04 07:41:16;;;;;;;12.60;7.82;;;17.20;76.40;;;;;;5092966;27;20031;-85
2022/06/04 07:43:41;;;;;;;13.75;7.30;;;17.40;75.90;;;;;;5110377;28;20024;-85
2022/06/04 07:46:07;;;;;;;13.35;7.53;;;17.30;73.90;;;;;;5091140;28;20169;-86
2022/06/04 07:48:32;;;;;;;13.77;7.63;;;17.30;74.10;;;;;;5086880;28;20030;-85
2022/06/04 07:50:58;;;;;;;12.20;7.50;;;17.30;74.60;;;;;;5106758;27;20039;-85
2022/06/04 07:53:23;;;;;;;11.23;6.80;;;17.30;74.20;;;;;;5090088;28;20038;-85
2022/06/04 07:55:49;;;;;;;11.50;7.13;;;17.00;74.40;;;;;;5080053;28;20028;-85
2022/06/04 07:58:14;;;;;;;14.43;7.00;;;17.00;76.20;;;;;;5094609;27;20035;-86
2022/06/04 08:00:40;;;;;;;11.18;7.00;;;17.30;75.90;;;;;;5093696;28;20131;-86
2022/06/04 08:03:07;;;;;;;10.30;6.80;;;17.50;75.80;;;;;;5092668;28;20028;-86
2022/06/04 08:05:33;;;;;;;12.05;7.15;;;17.30;74.20;;;;;;5090771;28;20486;-86
2022/06/04 08:07:58;;;;;;;11.23;6.50;;;17.60;73.70;;;;;;5092069;28;20034;-88
2022/06/04 08:10:24;;;;;;;12.02;6.90;;;17.60;72.70;;;;;;5085752;28;20056;-89
2022/06/04 08:12:55;;;;;;;13.98;7.15;;;17.30;72.90;;;;;;5090278;28;20386;-86
2022/06/04 08:15:22;;;;;;;11.65;5.97;;;17.30;72.70;;;;;;5093426;28;20031;-86
2022/06/04 08:17:48;;;;;;;13.52;6.28;;;17.40;73.10;;;;;;5108799;28;20109;-86
2022/06/04 08:20:13;;;;;;;11.57;6.07;;;17.70;74.00;;;;;;5090495;28;20032;-86
2022/06/04 08:22:40;;;;;;;10.55;6.05;;;18.00;72.50;;;;;;5088684;28;20427;-86
2022/06/04 08:25:06;;;;;;;10.27;6.10;;;17.90;71.50;;;;;;5091872;28;20033;-86
2022/06/04 08:27:31;;;;;;;13.60;6.30;;;18.10;71.90;;;;;;5094142;28;20027;-87
2022/06/04 08:29:57;;;;;;;9.43;5.72;;;18.10;70.10;;;;;;5099832;28;20083;-87
2022/06/04 08:32:22;;;;;;;11.23;6.20;;;18.20;70.00;;;;;;5096301;28;20032;-86
2022/06/04 08:34:48;;;;;;;10.40;5.45;;;18.70;71.40;;;;;;5106871;28;20027;-87
2022/06/04 08:37:13;;;;;;;9.02;5.40;;;18.60;68.90;;;;;;5087188;28;20024;-87
2022/06/04 08:39:39;;;;;;;9.02;4.85;;;18.80;67.90;;;;;;5107067;28;20561;-87
2022/06/04 08:42:10;;;;;;;9.90;5.45;;;19.00;67.20;;;;;;5089338;28;20031;-87
2022/06/04 08:44:44;;;;;;;8.77;5.05;;;19.10;69.30;;;;;;5086787;28;20024;-87
2022/06/04 08:47:17;;;;;;;8.00;4.82;;;19.40;67.20;;;;;;5107989;28;20038;-87
2022/06/04 08:50:07;;;;;;;10.70;4.28;;;19.90;67.40;;;;;;5095971;28;20631;-87
2022/06/04 08:52:48;;;;;;;9.82;4.60;;;19.80;64.30;;;;;;5119020;28;20027;-87
2022/06/04 08:58:39;;;;;;;8.85;4.03;;;19.60;62.90;;;;;;5115252;28;20014;-87
2022/06/04 09:01:25;;;;;;;7.03;3.55;;;19.80;63.80;;;;;;5098005;28;20142;-87
2022/06/04 09:04:38;;;;;;;5.20;3.03;;;20.50;62.60;;;;;;5095261;28;20016;-87
2022/06/04 09:07:12;;;;;;;6.10;3.60;;;20.10;60.20;;;;;;5090404;28;20123;-87
2022/06/04 09:09:44;;;;;;;6.18;3.10;;;20.40;64.20;;;;;;5088851;28;20105;-87
2022/06/04 09:12:39;;;;;;;5.05;3.03;;;20.50;60.80;;;;;;5054874;28;1014413;-87
2022/06/04 09:15:19;;;;;;;7.18;3.20;;;20.60;59.40;;;;;;5094584;28;20036;-87
2022/06/04 09:17:56;;;;;;;7.55;3.17;;;20.70;59.70;;;;;;5102484;28;20421;-88
2022/06/04 09:20:36;;;;;;;8.63;3.55;;;20.90;60.30;;;;;;5091146;28;20600;-90
2022/06/04 09:23:30;;;;;;;7.68;3.55;;;20.60;57.40;;;;;;5112694;28;20394;-87
2022/06/04 09:26:15;;;;;;;7.32;2.83;;;20.40;60.70;;;;;;5081377;27;20027;-87
2022/06/04 09:28:59;;;;;;;5.43;2.97;;;20.70;59.50;;;;;;5106317;27;20119;-88
2022/06/04 09:31:56;;;;;;;6.63;3.20;;;21.00;59.60;;;;;;5101568;27;20385;-87
2022/06/04 09:34:38;;;;;;;4.93;2.38;;;21.40;55.40;;;;;;5089176;28;20051;-88
2022/06/04 09:37:07;;;;;;;4.68;2.45;;;21.40;55.10;;;;;;5107001;28;20095;-88
2022/06/04 09:39:36;;;;;;;4.80;2.30;;;21.80;53.30;;;;;;5093796;28;20027;-87
2022/06/04 09:42:14;;;;;;;5.53;2.55;;;22.20;48.40;;;;;;5087946;28;20432;-87
2022/06/04 09:44:57;;;;;;;5.47;2.40;;;22.10;51.10;;;;;;5104258;27;20027;-86
2022/06/04 09:47:35;;;;;;;5.05;2.70;;;22.20;50.80;;;;;;5103737;27;20093;-88
2022/06/04 09:50:22;;;;;;;5.28;2.13;;;22.10;52.60;;;;;;5095220;28;20027;-88
2022/06/04 09:53:03;;;;;;;4.82;2.38;;;22.40;53.30;;;;;;5098312;27;20055;-87
2022/06/04 09:55:31;;;;;;;2.97;1.88;;;22.30;47.10;;;;;;5093781;28;20028;-87
2022/06/04 09:57:58;;;;;;;5.82;2.58;;;22.50;47.90;;;;;;5090717;28;20379;-87
2022/06/04 10:00:30;;;;;;;4.28;2.65;;;22.30;51.00;;;;;;5089768;28;20020;-88
2022/06/04 10:02:59;;;;;;;4.28;2.47;;;22.40;50.90;;;;;;5111370;27;20027;-87
2022/06/04 10:05:27;;;;;;;4.75;2.70;;;22.40;52.40;;;;;;5085874;28;20042;-87
2022/06/04 10:07:53;;;;;;;4.15;2.80;;;22.40;51.60;;;;;;5115297;28;20027;-88
2022/06/04 10:10:28;;;;;;;7.47;2.08;;;21.70;54.00;;;;;;5090839;28;20458;-86
2022/06/04 10:15:44;;;;;;;5.47;2.63;;;22.80;53.20;;;;;;5111908;27;20538;-87
2022/06/04 10:18:22;;;;;;;13.73;2.65;;;22.70;53.70;;;;;;5092405;27;20027;-87
2022/06/04 10:21:03;;;;;;;8.65;2.40;;;22.70;50.60;;;;;;5094784;28;20351;-87
2022/06/04 10:23:39;;;;;;;6.07;2.17;;;22.40;52.00;;;;;;5091194;28;20035;-88
2022/06/04 10:26:42;;;;;;;8.85;2.53;;;22.50;49.30;;;;;;5091080;28;20043;-88
2022/06/04 10:29:22;;;;;;;5.43;2.53;;;21.60;50.20;;;;;;5089605;28;20039;-87
2022/06/04 10:31:54;;;;;;;5.53;2.75;;;22.40;52.20;;;;;;5092334;28;20035;-87
2022/06/04 10:34:25;;;;;;;32.03;2.95;;;22.60;50.10;;;;;;5095839;28;20066;-88
2022/06/04 10:37:23;;;;;;;3.70;2.50;;;22.50;51.00;;;;;;5089202;28;20073;-88
2022/06/04 10:40:02;;;;;;;36.35;3.20;;;22.60;50.10;;;;;;5081100;28;20115;-88
2022/06/04 10:42:53;;;;;;;8.57;2.45;;;22.90;49.70;;;;;;5099150;27;20035;-88
2022/06/04 10:45:43;;;;;;;6.10;2.35;;;22.70;48.20;;;;;;5104556;27;20035;-87
2022/06/04 10:48:27;;;;;;;4.20;2.40;;;22.80;48.90;;;;;;5095512;28;20118;-87
2022/06/04 10:53:57;;;;;;;17.50;2.92;;;23.30;47.70;;;;;;5106223;27;20546;-87
2022/06/04 10:56:51;;;;;;;5.53;2.30;;;23.70;48.60;;;;;;5110967;27;20481;-87
2022/06/04 10:59:39;;;;;;;4.70;2.53;;;23.80;45.80;;;;;;5093952;28;20123;-88
2022/06/04 11:02:21;;;;;;;3.65;2.10;;;23.50;47.00;;;;;;5102554;27;20032;-87
2022/06/04 11:05:01;;;;;;;4.63;2.00;;;24.00;44.50;;;;;;5090638;28;20486;-87
2022/06/04 11:07:57;;;;;;;4.22;2.33;;;24.20;48.40;;;;;;5095888;27;20055;-86
2022/06/04 11:10:36;;;;;;;3.92;2.00;;;23.90;44.50;;;;;;5082185;28;20161;-86
2022/06/04 11:13:10;;;;;;;3.92;1.95;;;23.70;47.60;;;;;;5102179;27;20020;-86
2022/06/04 11:15:46;;;;;;;5.00;2.28;;;24.20;45.70;;;;;;5089219;28;20028;-87
2022/06/04 11:18:24;;;;;;;3.25;2.15;;;24.10;43.80;;;;;;5091530;28;20034;-86
2022/06/04 11:21:02;;;;;;;5.70;2.33;;;24.90;45.40;;;;;;5095832;28;20097;-86
2022/06/04 11:23:48;;;;;;;3.75;2.05;;;24.90;42.40;;;;;;5107409;27;20059;-86
2022/06/04 11:26:44;;;;;;;5.93;2.25;;;25.00;43.50;;;;;;5109100;28;20022;-87
2022/06/04 11:29:14;;;;;;;3.40;2.08;;;23.90;44.20;;;;;;5089301;28;20035;-87
2022/06/04 11:32:01;;;;;;;3.10;1.52;;;24.70;44.80;;;;;;5095304;28;20393;-86
2022/06/04 11:34:33;;;;;;;3.72;1.85;;;25.00;45.30;;;;;;5108318;28;20028;-87
2022/06/04 11:37:21;;;;;;;4.95;1.90;;;24.70;44.30;;;;;;5106103;28;20499;-86
2022/06/04 11:40:18;;;;;;;3.92;1.85;;;24.70;40.30;;;;;;5092791;28;20027;-86
2022/06/04 11:43:16;;;;;;;4.28;2.17;;;24.50;44.80;;;;;;5111947;27;20020;-86
2022/06/04 11:46:03;;;;;;;5.97;2.40;;;25.50;45.60;;;;;;5087583;28;20055;-86
2022/06/04 11:48:48;;;;;;;4.88;2.00;;;25.30;41.90;;;;;;5110755;27;20394;-87
2022/06/04 11:51:43;;;;;;;4.63;1.60;;;25.90;40.30;;;;;;5087567;28;20047;-86
2022/06/04 11:54:24;;;;;;;3.20;1.92;;;26.10;43.50;;;;;;5081889;28;20613;-86
2022/06/04 11:57:12;;;;;;;4.20;1.83;;;25.60;41.60;;;;;;5088784;28;20032;-86
2022/06/04 11:59:49;;;;;;;4.25;1.92;;;25.60;38.30;;;;;;5089900;28;20110;-86
2022/06/04 12:02:36;;;;;;;3.35;2.15;;;25.70;38.30;;;;;;5105010;28;20668;-86
2022/06/04 12:05:23;;;;;;;2.45;1.55;;;25.60;39.40;;;;;;5084678;28;20558;-87
2022/06/04 12:07:53;;;;;;;3.38;1.80;;;26.10;39.40;;;;;;5087462;28;20384;-85
2022/06/04 12:10:52;;;;;;;2.88;1.73;;;26.50;41.60;;;;;;5080290;28;20453;-86
2022/06/04 12:13:36;;;;;;;3.72;1.83;;;26.90;38.30;;;;;;5090288;27;20028;-86
2022/06/04 12:16:05;;;;;;;2.15;1.60;;;27.60;37.20;;;;;;5088493;28;20081;-86
2022/06/04 12:18:41;;;;;;;3.60;1.90;;;27.30;38.60;;;;;;5088286;28;20122;-86
2022/06/04 12:24:32;;;;;;;3.45;1.75;;;27.10;37.40;;;;;;5103186;28;20085;-85
2022/06/04 12:27:19;;;;;;;2.50;1.52;;;27.60;37.80;;;;;;5085255;28;20537;-87
2022/06/04 12:29:55;;;;;;;4.80;1.95;;;27.40;35.60;;;;;;5089147;28;20027;-87
2022/06/04 12:32:32;;;;;;;3.50;1.48;;;26.50;37.10;;;;;;5094503;28;20035;-86
2022/06/04 12:35:03;;;;;;;4.13;1.65;;;27.60;38.10;;;;;;5085230;28;20050;-86
2022/06/04 12:37:34;;;;;;;5.05;1.75;;;27.80;37.70;;;;;;5098351;28;20036;-87
2022/06/04 12:40:24;;;;;;;5.50;1.90;;;28.00;34.90;;;;;;5106365;28;20035;-86
2022/06/04 12:43:14;;;;;;;4.82;1.75;;;27.90;35.80;;;;;;5085334;28;20036;-87
2022/06/04 12:45:46;;;;;;;3.30;1.60;;;27.10;36.00;;;;;;5090599;28;20028;-87
2022/06/04 12:48:28;;;;;;;5.18;2.00;;;28.00;37.20;;;;;;5080926;28;20034;-86
2022/06/04 12:51:17;;;;;;;5.57;1.77;;;28.70;35.80;;;;;;5101853;28;20571;-87
2022/06/04 12:54:17;;;;;;;3.15;1.80;;;28.40;37.60;;;;;;5085565;28;20513;-87
2022/06/04 12:56:43;;;;;;;7.53;2.05;;;28.30;34.20;;;;;;5093367;28;20035;-87
2022/06/04 12:59:39;;;;;;;3.25;1.63;;;28.90;35.10;;;;;;5088829;28;20038;-87
2022/06/04 13:02:23;;;;;;;2.60;1.40;;;28.70;32.80;;;;;;5104267;28;20084;-86
2022/06/04 13:04:49;;;;;;;2.15;1.40;;;28.80;33.80;;;;;;5084193;28;20043;-86
2022/06/04 13:07:26;;;;;;;2.33;1.48;;;28.50;34.40;;;;;;5071165;28;20035;-87
2022/06/04 13:10:13;;;;;;;1.98;1.30;;;28.00;33.00;;;;;;5082699;28;20027;-86
2022/06/04 13:13:14;;;;;;;3.33;1.63;;;28.00;34.00;;;;;;5091307;28;21047;-86
2022/06/04 13:15:46;;;;;;;3.03;1.70;;;27.30;36.30;;;;;;5100315;28;20089;-86
2022/06/04 13:18:26;;;;;;;3.63;1.65;;;28.80;35.70;;;;;;5092507;28;20043;-87
2022/06/04 13:20:59;;;;;;;4.07;2.00;;;28.00;32.90;;;;;;5090759;28;20497;-86
2022/06/04 13:23:41;;;;;;;3.30;1.50;;;27.60;34.50;;;;;;5092299;28;20040;-87
2022/06/04 13:26:30;;;;;;;2.92;1.50;;;27.50;34.90;;;;;;5084177;28;20505;-86
2022/06/04 13:28:56;;;;;;;2.58;1.30;;;28.80;33.30;;;;;;5091471;28;20032;-86